sensor_id;sensor_type;location;lat;lon;timestamp;P1;durP1;ratioP1;P2;durP2;ratioP2
71888;SDS011;59762;49.998;14.858;2023-06-10T00:01:52;12.43;;;9.20;;
71888;SDS011;59762;49.998;14.858;2023-06-10T00:04:20;12.82;;;9.40;;
71888;SDS011;59762;49.998;14.858;2023-06-10T00:06:47;13.10;;;9.35;;
71888;SDS011;59762;49.998;14.858;2023-06-10T00:09:15;15.45;;;9.80;;
71888;SDS011;59762;49.998;14.858;2023-06-10T00:11:41;14.55;;;9.85;;
71888;SDS011;59762;49.998;14.858;2023-06-10T00:14:07;13.57;;;9.85;;
71888;SDS011;59762;49.998;14.858;2023-06-10T00:16:33;15.20;;;10.48;;
71888;SDS011;59762;49.998;14.858;2023-06-10T00:19:00;15.75;;;10.57;;
71888;SDS011;59762;49.998;14.858;2023-06-10T00:21:26;15.43;;;10.00;;
71888;SDS011;59762;49.998;14.858;2023-06-10T00:23:53;15.05;;;9.82;;
71888;SDS011;59762;49.998;14.858;2023-06-10T00:26:20;13.32;;;10.02;;
71888;SDS011;59762;49.998;14.858;2023-06-10T00:28:49;16.77;;;10.13;;
71888;SDS011;59762;49.998;14.858;2023-06-10T00:31:15;13.50;;;9.43;;
71888;SDS011;59762;49.998;14.858;2023-06-10T00:33:41;18.92;;;10.43;;
71888;SDS011;59762;49.998;14.858;2023-06-10T00:36:07;14.35;;;10.02;;
71888;SDS011;59762;49.998;14.858;2023-06-10T00:38:33;18.45;;;9.70;;
71888;SDS011;59762;49.998;14.858;2023-06-10T00:40:58;16.73;;;9.57;;
71888;SDS011;59762;49.998;14.858;2023-06-10T00:43:25;19.35;;;10.68;;
71888;SDS011;59762;49.998;14.858;2023-06-10T00:45:51;17.75;;;11.27;;
71888;SDS011;59762;49.998;14.858;2023-06-10T00:48:17;16.75;;;10.63;;
71888;SDS011;59762;49.998;14.858;2023-06-10T00:50:43;17.70;;;11.07;;
71888;SDS011;59762;49.998;14.858;2023-06-10T00:53:12;16.73;;;11.07;;
71888;SDS011;59762;49.998;14.858;2023-06-10T00:55:38;16.73;;;11.27;;
71888;SDS011;59762;49.998;14.858;2023-06-10T00:58:05;20.55;;;11.00;;
71888;SDS011;59762;49.998;14.858;2023-06-10T01:00:31;14.05;;;10.40;;
71888;SDS011;59762;49.998;14.858;2023-06-10T01:02:57;19.23;;;10.98;;
71888;SDS011;59762;49.998;14.858;2023-06-10T01:05:23;17.48;;;11.48;;
71888;SDS011;59762;49.998;14.858;2023-06-10T01:07:54;19.65;;;10.68;;
71888;SDS011;59762;49.998;14.858;2023-06-10T01:10:41;20.42;;;10.73;;
71888;SDS011;59762;49.998;14.858;2023-06-10T01:13:12;17.83;;;11.45;;
71888;SDS011;59762;49.998;14.858;2023-06-10T01:15:39;16.33;;;11.32;;
71888;SDS011;59762;49.998;14.858;2023-06-10T01:18:06;14.95;;;10.43;;
71888;SDS011;59762;49.998;14.858;2023-06-10T01:20:40;15.35;;;10.35;;
71888;SDS011;59762;49.998;14.858;2023-06-10T01:23:08;14.63;;;10.88;;
71888;SDS011;59762;49.998;14.858;2023-06-10T01:25:38;16.45;;;10.23;;
71888;SDS011;59762;49.998;14.858;2023-06-10T01:28:26;13.57;;;9.77;;
71888;SDS011;59762;49.998;14.858;2023-06-10T01:33:41;14.70;;;10.15;;
71888;SDS011;59762;49.998;14.858;2023-06-10T01:36:08;13.90;;;9.77;;
71888;SDS011;59762;49.998;14.858;2023-06-10T01:38:39;16.38;;;10.07;;
71888;SDS011;59762;49.998;14.858;2023-06-10T01:41:07;13.27;;;9.45;;
71888;SDS011;59762;49.998;14.858;2023-06-10T01:43:34;16.30;;;8.95;;
71888;SDS011;59762;49.998;14.858;2023-06-10T01:46:02;13.95;;;9.82;;
71888;SDS011;59762;49.998;14.858;2023-06-10T01:48:28;12.10;;;8.60;;
71888;SDS011;59762;49.998;14.858;2023-06-10T01:50:54;14.60;;;9.70;;
71888;SDS011;59762;49.998;14.858;2023-06-10T01:53:22;15.45;;;9.68;;
71888;SDS011;59762;49.998;14.858;2023-06-10T01:55:47;13.40;;;9.52;;
71888;SDS011;59762;49.998;14.858;2023-06-10T01:58:13;15.20;;;9.25;;
71888;SDS011;59762;49.998;14.858;2023-06-10T02:00:39;12.45;;;8.63;;
71888;SDS011;59762;49.998;14.858;2023-06-10T02:03:05;12.10;;;9.13;;
71888;SDS011;59762;49.998;14.858;2023-06-10T02:05:31;13.23;;;9.30;;
71888;SDS011;59762;49.998;14.858;2023-06-10T02:07:57;14.05;;;9.38;;
71888;SDS011;59762;49.998;14.858;2023-06-10T02:10:23;14.35;;;9.82;;
71888;SDS011;59762;49.998;14.858;2023-06-10T02:12:49;15.50;;;9.25;;
71888;SDS011;59762;49.998;14.858;2023-06-10T02:15:14;11.55;;;8.35;;
71888;SDS011;59762;49.998;14.858;2023-06-10T02:17:40;12.10;;;8.55;;
71888;SDS011;59762;49.998;14.858;2023-06-10T02:20:06;13.23;;;8.70;;
71888;SDS011;59762;49.998;14.858;2023-06-10T02:22:33;11.70;;;8.65;;
71888;SDS011;59762;49.998;14.858;2023-06-10T02:24:59;12.13;;;7.95;;
71888;SDS011;59762;49.998;14.858;2023-06-10T02:27:25;13.75;;;9.55;;
71888;SDS011;59762;49.998;14.858;2023-06-10T02:29:51;12.23;;;8.57;;
71888;SDS011;59762;49.998;14.858;2023-06-10T02:32:17;11.77;;;8.70;;
71888;SDS011;59762;49.998;14.858;2023-06-10T02:34:42;12.48;;;7.55;;
71888;SDS011;59762;49.998;14.858;2023-06-10T02:37:08;12.13;;;8.38;;
71888;SDS011;59762;49.998;14.858;2023-06-10T02:39:34;10.88;;;8.02;;
71888;SDS011;59762;49.998;14.858;2023-06-10T02:42:00;13.27;;;8.50;;
71888;SDS011;59762;49.998;14.858;2023-06-10T02:44:26;13.63;;;8.45;;
71888;SDS011;59762;49.998;14.858;2023-06-10T02:46:52;17.23;;;8.85;;
71888;SDS011;59762;49.998;14.858;2023-06-10T02:49:17;14.40;;;8.93;;
71888;SDS011;59762;49.998;14.858;2023-06-10T02:51:43;12.82;;;8.38;;
71888;SDS011;59762;49.998;14.858;2023-06-10T02:54:09;10.48;;;7.85;;
71888;SDS011;59762;49.998;14.858;2023-06-10T02:56:35;14.52;;;7.85;;
71888;SDS011;59762;49.998;14.858;2023-06-10T02:59:01;11.32;;;7.85;;
71888;SDS011;59762;49.998;14.858;2023-06-10T03:01:27;10.18;;;7.63;;
71888;SDS011;59762;49.998;14.858;2023-06-10T03:03:53;10.32;;;7.53;;
71888;SDS011;59762;49.998;14.858;2023-06-10T03:06:21;13.25;;;8.05;;
71888;SDS011;59762;49.998;14.858;2023-06-10T03:08:49;13.05;;;8.15;;
71888;SDS011;59762;49.998;14.858;2023-06-10T03:11:15;14.20;;;8.27;;
71888;SDS011;59762;49.998;14.858;2023-06-10T03:13:40;12.35;;;8.55;;
71888;SDS011;59762;49.998;14.858;2023-06-10T03:16:06;11.02;;;7.10;;
71888;SDS011;59762;49.998;14.858;2023-06-10T03:18:33;12.13;;;7.65;;
71888;SDS011;59762;49.998;14.858;2023-06-10T03:20:58;13.05;;;8.82;;
71888;SDS011;59762;49.998;14.858;2023-06-10T03:23:24;12.50;;;8.35;;
71888;SDS011;59762;49.998;14.858;2023-06-10T03:25:50;11.68;;;7.72;;
71888;SDS011;59762;49.998;14.858;2023-06-10T03:28:15;10.52;;;8.05;;
71888;SDS011;59762;49.998;14.858;2023-06-10T03:30:41;16.33;;;7.95;;
71888;SDS011;59762;49.998;14.858;2023-06-10T03:33:07;11.20;;;7.50;;
71888;SDS011;59762;49.998;14.858;2023-06-10T03:35:32;11.18;;;7.57;;
71888;SDS011;59762;49.998;14.858;2023-06-10T03:38:00;10.45;;;7.05;;
71888;SDS011;59762;49.998;14.858;2023-06-10T03:40:25;14.07;;;8.98;;
71888;SDS011;59762;49.998;14.858;2023-06-10T03:42:51;16.23;;;8.13;;
71888;SDS011;59762;49.998;14.858;2023-06-10T03:45:17;10.43;;;7.85;;
71888;SDS011;59762;49.998;14.858;2023-06-10T03:47:43;9.55;;;6.50;;
71888;SDS011;59762;49.998;14.858;2023-06-10T03:50:09;8.48;;;6.43;;
71888;SDS011;59762;49.998;14.858;2023-06-10T03:52:35;9.27;;;6.35;;
71888;SDS011;59762;49.998;14.858;2023-06-10T03:55:01;7.95;;;5.90;;
71888;SDS011;59762;49.998;14.858;2023-06-10T03:57:27;8.63;;;6.35;;
71888;SDS011;59762;49.998;14.858;2023-06-10T03:59:53;9.75;;;6.30;;
71888;SDS011;59762;49.998;14.858;2023-06-10T04:02:20;9.70;;;6.15;;
71888;SDS011;59762;49.998;14.858;2023-06-10T04:04:46;9.73;;;6.70;;
71888;SDS011;59762;49.998;14.858;2023-06-10T04:07:12;10.05;;;6.55;;
71888;SDS011;59762;49.998;14.858;2023-06-10T04:09:39;8.80;;;7.22;;
71888;SDS011;59762;49.998;14.858;2023-06-10T04:12:04;11.80;;;6.53;;
71888;SDS011;59762;49.998;14.858;2023-06-10T04:14:35;9.30;;;6.43;;
71888;SDS011;59762;49.998;14.858;2023-06-10T04:17:04;9.57;;;6.43;;
71888;SDS011;59762;49.998;14.858;2023-06-10T04:19:33;10.05;;;6.43;;
71888;SDS011;59762;49.998;14.858;2023-06-10T04:22:00;8.80;;;6.18;;
71888;SDS011;59762;49.998;14.858;2023-06-10T04:24:27;10.07;;;6.72;;
71888;SDS011;59762;49.998;14.858;2023-06-10T04:26:53;10.50;;;6.05;;
71888;SDS011;59762;49.998;14.858;2023-06-10T04:29:19;7.90;;;6.30;;
71888;SDS011;59762;49.998;14.858;2023-06-10T04:31:44;8.32;;;5.72;;
71888;SDS011;59762;49.998;14.858;2023-06-10T04:34:12;8.55;;;6.03;;
71888;SDS011;59762;49.998;14.858;2023-06-10T04:36:38;6.97;;;5.43;;
71888;SDS011;59762;49.998;14.858;2023-06-10T04:39:03;9.07;;;5.88;;
71888;SDS011;59762;49.998;14.858;2023-06-10T04:41:31;7.70;;;5.75;;
71888;SDS011;59762;49.998;14.858;2023-06-10T04:43:56;8.90;;;6.75;;
71888;SDS011;59762;49.998;14.858;2023-06-10T04:46:23;14.70;;;7.63;;
71888;SDS011;59762;49.998;14.858;2023-06-10T04:48:49;7.43;;;6.47;;
71888;SDS011;59762;49.998;14.858;2023-06-10T04:51:15;8.63;;;6.30;;
71888;SDS011;59762;49.998;14.858;2023-06-10T04:53:41;7.60;;;5.85;;
71888;SDS011;59762;49.998;14.858;2023-06-10T04:56:07;8.30;;;6.35;;
71888;SDS011;59762;49.998;14.858;2023-06-10T04:58:33;8.25;;;6.40;;
71888;SDS011;59762;49.998;14.858;2023-06-10T05:00:59;7.93;;;6.43;;
71888;SDS011;59762;49.998;14.858;2023-06-10T05:03:26;7.30;;;5.68;;
71888;SDS011;59762;49.998;14.858;2023-06-10T05:05:52;7.43;;;5.95;;
71888;SDS011;59762;49.998;14.858;2023-06-10T05:08:17;8.15;;;5.80;;
71888;SDS011;59762;49.998;14.858;2023-06-10T05:10:43;7.32;;;5.57;;
71888;SDS011;59762;49.998;14.858;2023-06-10T05:13:09;9.35;;;6.32;;
71888;SDS011;59762;49.998;14.858;2023-06-10T05:15:35;7.50;;;5.85;;
71888;SDS011;59762;49.998;14.858;2023-06-10T05:18:00;5.88;;;5.28;;
71888;SDS011;59762;49.998;14.858;2023-06-10T05:20:28;7.68;;;5.65;;
71888;SDS011;59762;49.998;14.858;2023-06-10T05:22:54;6.30;;;5.43;;
71888;SDS011;59762;49.998;14.858;2023-06-10T05:25:20;7.60;;;5.68;;
71888;SDS011;59762;49.998;14.858;2023-06-10T05:27:46;8.95;;;5.10;;
71888;SDS011;59762;49.998;14.858;2023-06-10T05:30:12;7.72;;;5.97;;
71888;SDS011;59762;49.998;14.858;2023-06-10T05:32:38;7.22;;;5.85;;
71888;SDS011;59762;49.998;14.858;2023-06-10T05:35:03;6.22;;;5.28;;
71888;SDS011;59762;49.998;14.858;2023-06-10T05:37:29;8.93;;;5.60;;
71888;SDS011;59762;49.998;14.858;2023-06-10T05:39:55;6.72;;;5.60;;
71888;SDS011;59762;49.998;14.858;2023-06-10T05:42:21;6.43;;;5.57;;
71888;SDS011;59762;49.998;14.858;2023-06-10T05:44:47;6.70;;;5.80;;
71888;SDS011;59762;49.998;14.858;2023-06-10T05:47:12;5.65;;;5.07;;
71888;SDS011;59762;49.998;14.858;2023-06-10T05:49:38;7.03;;;5.90;;
71888;SDS011;59762;49.998;14.858;2023-06-10T05:52:03;5.60;;;4.97;;
71888;SDS011;59762;49.998;14.858;2023-06-10T05:54:29;8.82;;;6.10;;
71888;SDS011;59762;49.998;14.858;2023-06-10T05:56:55;6.90;;;5.32;;
71888;SDS011;59762;49.998;14.858;2023-06-10T05:59:21;9.75;;;5.55;;
71888;SDS011;59762;49.998;14.858;2023-06-10T06:01:48;7.45;;;5.85;;
71888;SDS011;59762;49.998;14.858;2023-06-10T06:04:15;6.35;;;5.50;;
71888;SDS011;59762;49.998;14.858;2023-06-10T06:06:41;6.70;;;5.50;;
71888;SDS011;59762;49.998;14.858;2023-06-10T06:09:07;8.10;;;5.32;;
71888;SDS011;59762;49.998;14.858;2023-06-10T06:11:33;7.13;;;6.05;;
71888;SDS011;59762;49.998;14.858;2023-06-10T06:14:00;6.85;;;5.65;;
71888;SDS011;59762;49.998;14.858;2023-06-10T06:16:25;6.55;;;5.85;;
71888;SDS011;59762;49.998;14.858;2023-06-10T06:18:51;8.38;;;6.10;;
71888;SDS011;59762;49.998;14.858;2023-06-10T06:21:17;8.90;;;5.85;;
71888;SDS011;59762;49.998;14.858;2023-06-10T06:23:42;7.43;;;6.05;;
71888;SDS011;59762;49.998;14.858;2023-06-10T06:26:08;6.80;;;5.68;;
71888;SDS011;59762;49.998;14.858;2023-06-10T06:28:34;6.82;;;5.82;;
71888;SDS011;59762;49.998;14.858;2023-06-10T06:30:59;10.30;;;6.18;;
71888;SDS011;59762;49.998;14.858;2023-06-10T06:33:25;7.78;;;5.88;;
71888;SDS011;59762;49.998;14.858;2023-06-10T06:35:51;9.43;;;6.10;;
71888;SDS011;59762;49.998;14.858;2023-06-10T06:38:17;7.65;;;5.75;;
71888;SDS011;59762;49.998;14.858;2023-06-10T06:40:43;8.63;;;6.03;;
71888;SDS011;59762;49.998;14.858;2023-06-10T06:43:08;7.88;;;6.13;;
71888;SDS011;59762;49.998;14.858;2023-06-10T06:45:34;8.57;;;5.60;;
71888;SDS011;59762;49.998;14.858;2023-06-10T06:48:00;9.00;;;5.85;;
71888;SDS011;59762;49.998;14.858;2023-06-10T06:50:25;8.32;;;6.45;;
71888;SDS011;59762;49.998;14.858;2023-06-10T06:52:51;9.13;;;6.10;;
71888;SDS011;59762;49.998;14.858;2023-06-10T06:55:17;6.88;;;5.78;;
71888;SDS011;59762;49.998;14.858;2023-06-10T06:57:43;7.38;;;5.40;;
71888;SDS011;59762;49.998;14.858;2023-06-10T07:00:08;7.90;;;5.43;;
71888;SDS011;59762;49.998;14.858;2023-06-10T07:02:35;8.43;;;6.15;;
71888;SDS011;59762;49.998;14.858;2023-06-10T07:05:01;8.80;;;6.47;;
71888;SDS011;59762;49.998;14.858;2023-06-10T07:07:27;9.80;;;6.47;;
71888;SDS011;59762;49.998;14.858;2023-06-10T07:09:52;7.50;;;6.20;;
71888;SDS011;59762;49.998;14.858;2023-06-10T07:12:18;9.75;;;7.00;;
71888;SDS011;59762;49.998;14.858;2023-06-10T07:14:44;9.20;;;7.28;;
71888;SDS011;59762;49.998;14.858;2023-06-10T07:17:09;9.65;;;7.05;;
71888;SDS011;59762;49.998;14.858;2023-06-10T07:19:35;10.45;;;7.38;;
71888;SDS011;59762;49.998;14.858;2023-06-10T07:22:01;9.32;;;7.35;;
71888;SDS011;59762;49.998;14.858;2023-06-10T07:24:26;10.07;;;7.35;;
71888;SDS011;59762;49.998;14.858;2023-06-10T07:26:52;10.98;;;7.72;;
71888;SDS011;59762;49.998;14.858;2023-06-10T07:29:18;10.15;;;8.02;;
71888;SDS011;59762;49.998;14.858;2023-06-10T07:31:43;9.48;;;7.47;;
71888;SDS011;59762;49.998;14.858;2023-06-10T07:34:09;8.75;;;7.05;;
71888;SDS011;59762;49.998;14.858;2023-06-10T07:36:35;9.40;;;6.93;;
71888;SDS011;59762;49.998;14.858;2023-06-10T07:39:02;8.77;;;7.43;;
71888;SDS011;59762;49.998;14.858;2023-06-10T07:41:27;8.65;;;7.07;;
71888;SDS011;59762;49.998;14.858;2023-06-10T07:43:53;10.38;;;8.02;;
71888;SDS011;59762;49.998;14.858;2023-06-10T07:46:22;12.70;;;7.90;;
71888;SDS011;59762;49.998;14.858;2023-06-10T07:48:49;9.60;;;7.35;;
71888;SDS011;59762;49.998;14.858;2023-06-10T07:51:16;11.20;;;8.27;;
71888;SDS011;59762;49.998;14.858;2023-06-10T07:53:41;10.50;;;7.72;;
71888;SDS011;59762;49.998;14.858;2023-06-10T07:56:07;11.50;;;8.30;;
71888;SDS011;59762;49.998;14.858;2023-06-10T07:58:33;9.73;;;8.05;;
71888;SDS011;59762;49.998;14.858;2023-06-10T08:00:59;10.75;;;8.27;;
71888;SDS011;59762;49.998;14.858;2023-06-10T08:03:24;10.40;;;7.82;;
71888;SDS011;59762;49.998;14.858;2023-06-10T08:05:50;8.18;;;7.15;;
71888;SDS011;59762;49.998;14.858;2023-06-10T08:08:15;9.90;;;7.63;;
71888;SDS011;59762;49.998;14.858;2023-06-10T08:10:41;12.73;;;7.60;;
71888;SDS011;59762;49.998;14.858;2023-06-10T08:13:07;11.45;;;8.15;;
71888;SDS011;59762;49.998;14.858;2023-06-10T08:15:34;9.25;;;7.22;;
71888;SDS011;59762;49.998;14.858;2023-06-10T08:17:59;12.63;;;7.38;;
71888;SDS011;59762;49.998;14.858;2023-06-10T08:20:25;10.25;;;7.97;;
71888;SDS011;59762;49.998;14.858;2023-06-10T08:22:51;11.43;;;7.55;;
71888;SDS011;59762;49.998;14.858;2023-06-10T08:25:17;8.65;;;7.10;;
71888;SDS011;59762;49.998;14.858;2023-06-10T08:27:42;9.73;;;7.40;;
71888;SDS011;59762;49.998;14.858;2023-06-10T08:30:08;8.52;;;7.28;;
71888;SDS011;59762;49.998;14.858;2023-06-10T08:32:36;11.80;;;7.72;;
71888;SDS011;59762;49.998;14.858;2023-06-10T08:35:02;11.52;;;8.15;;
71888;SDS011;59762;49.998;14.858;2023-06-10T08:37:28;12.18;;;7.68;;
71888;SDS011;59762;49.998;14.858;2023-06-10T08:39:54;11.77;;;7.97;;
71888;SDS011;59762;49.998;14.858;2023-06-10T08:42:22;11.65;;;8.18;;
71888;SDS011;59762;49.998;14.858;2023-06-10T08:44:59;9.15;;;7.95;;
71888;SDS011;59762;49.998;14.858;2023-06-10T08:47:28;14.63;;;8.90;;
71888;SDS011;59762;49.998;14.858;2023-06-10T08:50:01;11.98;;;8.73;;
71888;SDS011;59762;49.998;14.858;2023-06-10T08:52:29;12.68;;;7.15;;
71888;SDS011;59762;49.998;14.858;2023-06-10T08:55:04;10.77;;;8.30;;
71888;SDS011;59762;49.998;14.858;2023-06-10T08:57:33;10.40;;;8.50;;
71888;SDS011;59762;49.998;14.858;2023-06-10T09:00:00;11.18;;;7.97;;
71888;SDS011;59762;49.998;14.858;2023-06-10T09:02:28;11.48;;;9.02;;
71888;SDS011;59762;49.998;14.858;2023-06-10T09:04:54;12.18;;;9.55;;
71888;SDS011;59762;49.998;14.858;2023-06-10T09:07:22;10.75;;;9.13;;
71888;SDS011;59762;49.998;14.858;2023-06-10T09:09:48;13.73;;;8.55;;
71888;SDS011;59762;49.998;14.858;2023-06-10T09:12:14;11.30;;;9.35;;
71888;SDS011;59762;49.998;14.858;2023-06-10T09:14:44;11.80;;;8.93;;
71888;SDS011;59762;49.998;14.858;2023-06-10T09:17:10;12.70;;;9.30;;
71888;SDS011;59762;49.998;14.858;2023-06-10T09:19:36;10.85;;;8.93;;
71888;SDS011;59762;49.998;14.858;2023-06-10T09:22:04;11.27;;;9.27;;
71888;SDS011;59762;49.998;14.858;2023-06-10T09:24:30;12.60;;;9.15;;
71888;SDS011;59762;49.998;14.858;2023-06-10T09:27:06;14.13;;;10.00;;
71888;SDS011;59762;49.998;14.858;2023-06-10T09:29:54;13.18;;;9.68;;
71888;SDS011;59762;49.998;14.858;2023-06-10T09:32:25;10.00;;;8.38;;
71888;SDS011;59762;49.998;14.858;2023-06-10T09:34:52;17.67;;;9.60;;
71888;SDS011;59762;49.998;14.858;2023-06-10T09:37:21;9.32;;;8.32;;
71888;SDS011;59762;49.998;14.858;2023-06-10T09:40:06;9.57;;;8.07;;
71888;SDS011;59762;49.998;14.858;2023-06-10T09:42:34;12.15;;;9.43;;
71888;SDS011;59762;49.998;14.858;2023-06-10T09:45:01;11.35;;;8.55;;
71888;SDS011;59762;49.998;14.858;2023-06-10T09:47:30;13.73;;;8.73;;
71888;SDS011;59762;49.998;14.858;2023-06-10T09:49:56;11.55;;;8.98;;
71888;SDS011;59762;49.998;14.858;2023-06-10T09:52:22;14.27;;;8.55;;
71888;SDS011;59762;49.998;14.858;2023-06-10T09:54:53;12.27;;;8.82;;
71888;SDS011;59762;49.998;14.858;2023-06-10T09:57:20;11.25;;;8.35;;
71888;SDS011;59762;49.998;14.858;2023-06-10T09:59:46;9.57;;;8.18;;
71888;SDS011;59762;49.998;14.858;2023-06-10T10:02:13;12.68;;;8.32;;
71888;SDS011;59762;49.998;14.858;2023-06-10T10:04:43;11.25;;;8.55;;
71888;SDS011;59762;49.998;14.858;2023-06-10T10:07:09;9.18;;;7.70;;
71888;SDS011;59762;49.998;14.858;2023-06-10T10:09:37;12.00;;;8.18;;
71888;SDS011;59762;49.998;14.858;2023-06-10T10:12:05;11.07;;;7.90;;
71888;SDS011;59762;49.998;14.858;2023-06-10T10:14:36;12.25;;;8.05;;
71888;SDS011;59762;49.998;14.858;2023-06-10T10:17:07;10.38;;;8.18;;
71888;SDS011;59762;49.998;14.858;2023-06-10T10:19:37;14.88;;;8.85;;
71888;SDS011;59762;49.998;14.858;2023-06-10T10:22:11;7.85;;;7.05;;
71888;SDS011;59762;49.998;14.858;2023-06-10T10:24:48;11.55;;;7.97;;
71888;SDS011;59762;49.998;14.858;2023-06-10T10:30:17;9.88;;;8.23;;
71888;SDS011;59762;49.998;14.858;2023-06-10T10:32:52;12.50;;;7.88;;
71888;SDS011;59762;49.998;14.858;2023-06-10T10:35:25;10.82;;;7.72;;
71888;SDS011;59762;49.998;14.858;2023-06-10T10:37:52;8.38;;;7.18;;
71888;SDS011;59762;49.998;14.858;2023-06-10T10:40:19;8.35;;;7.28;;
71888;SDS011;59762;49.998;14.858;2023-06-10T10:42:47;9.88;;;7.53;;
71888;SDS011;59762;49.998;14.858;2023-06-10T10:45:14;10.43;;;8.25;;
71888;SDS011;59762;49.998;14.858;2023-06-10T10:47:40;7.93;;;6.65;;
71888;SDS011;59762;49.998;14.858;2023-06-10T10:50:18;12.68;;;7.45;;
71888;SDS011;59762;49.998;14.858;2023-06-10T10:52:46;9.88;;;7.72;;
71888;SDS011;59762;49.998;14.858;2023-06-10T10:55:18;10.75;;;7.03;;
71888;SDS011;59762;49.998;14.858;2023-06-10T10:57:43;8.40;;;6.50;;
71888;SDS011;59762;49.998;14.858;2023-06-10T11:00:09;10.93;;;7.55;;
71888;SDS011;59762;49.998;14.858;2023-06-10T11:02:36;8.10;;;7.00;;
71888;SDS011;59762;49.998;14.858;2023-06-10T11:05:10;8.77;;;7.50;;
71888;SDS011;59762;49.998;14.858;2023-06-10T11:07:40;8.13;;;6.93;;
71888;SDS011;59762;49.998;14.858;2023-06-10T11:10:09;8.90;;;7.10;;
71888;SDS011;59762;49.998;14.858;2023-06-10T11:15:07;9.10;;;7.40;;
71888;SDS011;59762;49.998;14.858;2023-06-10T11:17:33;10.45;;;7.20;;
71888;SDS011;59762;49.998;14.858;2023-06-10T11:19:59;12.27;;;8.10;;
71888;SDS011;59762;49.998;14.858;2023-06-10T11:22:25;13.73;;;8.20;;
71888;SDS011;59762;49.998;14.858;2023-06-10T11:24:51;12.85;;;8.02;;
71888;SDS011;59762;49.998;14.858;2023-06-10T11:27:23;13.95;;;7.63;;
71888;SDS011;59762;49.998;14.858;2023-06-10T11:32:25;9.80;;;8.13;;
71888;SDS011;59762;49.998;14.858;2023-06-10T11:34:57;8.85;;;7.75;;
71888;SDS011;59762;49.998;14.858;2023-06-10T11:37:23;15.15;;;9.50;;
71888;SDS011;59762;49.998;14.858;2023-06-10T11:39:52;12.68;;;8.25;;
71888;SDS011;59762;49.998;14.858;2023-06-10T11:42:19;10.95;;;8.88;;
71888;SDS011;59762;49.998;14.858;2023-06-10T11:44:49;15.48;;;9.15;;
71888;SDS011;59762;49.998;14.858;2023-06-10T11:47:16;9.95;;;7.35;;
71888;SDS011;59762;49.998;14.858;2023-06-10T11:49:42;10.07;;;8.00;;
71888;SDS011;59762;49.998;14.858;2023-06-10T11:52:08;8.85;;;7.65;;
71888;SDS011;59762;49.998;14.858;2023-06-10T11:54:34;9.60;;;7.70;;
71888;SDS011;59762;49.998;14.858;2023-06-10T11:56:59;10.00;;;7.80;;
71888;SDS011;59762;49.998;14.858;2023-06-10T11:59:29;10.57;;;7.75;;
71888;SDS011;59762;49.998;14.858;2023-06-10T12:01:55;8.50;;;6.88;;
71888;SDS011;59762;49.998;14.858;2023-06-10T12:04:22;10.32;;;7.00;;
71888;SDS011;59762;49.998;14.858;2023-06-10T12:06:48;10.18;;;7.57;;
71888;SDS011;59762;49.998;14.858;2023-06-10T12:09:31;16.20;;;10.20;;
71888;SDS011;59762;49.998;14.858;2023-06-10T12:11:59;12.57;;;8.60;;
71888;SDS011;59762;49.998;14.858;2023-06-10T12:17:22;10.25;;;7.60;;
71888;SDS011;59762;49.998;14.858;2023-06-10T12:19:48;10.52;;;8.05;;
71888;SDS011;59762;49.998;14.858;2023-06-10T12:22:14;10.93;;;7.22;;
71888;SDS011;59762;49.998;14.858;2023-06-10T12:24:44;9.75;;;7.65;;
71888;SDS011;59762;49.998;14.858;2023-06-10T12:27:24;11.07;;;8.15;;
71888;SDS011;59762;49.998;14.858;2023-06-10T12:29:51;8.88;;;6.78;;
71888;SDS011;59762;49.998;14.858;2023-06-10T12:32:20;8.93;;;6.53;;
71888;SDS011;59762;49.998;14.858;2023-06-10T12:35:02;9.20;;;7.47;;
71888;SDS011;59762;49.998;14.858;2023-06-10T12:37:29;15.50;;;6.90;;
71888;SDS011;59762;49.998;14.858;2023-06-10T12:39:55;9.15;;;6.45;;
71888;SDS011;59762;49.998;14.858;2023-06-10T12:42:22;7.03;;;5.97;;
71888;SDS011;59762;49.998;14.858;2023-06-10T12:44:52;8.77;;;5.95;;
71888;SDS011;59762;49.998;14.858;2023-06-10T12:47:19;11.63;;;5.75;;
71888;SDS011;59762;49.998;14.858;2023-06-10T12:49:45;7.07;;;5.10;;
71888;SDS011;59762;49.998;14.858;2023-06-10T12:52:11;5.35;;;4.82;;
71888;SDS011;59762;49.998;14.858;2023-06-10T12:54:36;6.85;;;4.97;;
71888;SDS011;59762;49.998;14.858;2023-06-10T12:57:02;6.93;;;4.22;;
71888;SDS011;59762;49.998;14.858;2023-06-10T12:59:29;7.22;;;5.00;;
71888;SDS011;59762;49.998;14.858;2023-06-10T13:01:54;6.47;;;4.93;;
71888;SDS011;59762;49.998;14.858;2023-06-10T13:04:20;5.60;;;4.47;;
71888;SDS011;59762;49.998;14.858;2023-06-10T13:06:47;6.70;;;4.80;;
71888;SDS011;59762;49.998;14.858;2023-06-10T13:09:14;7.43;;;4.78;;
71888;SDS011;59762;49.998;14.858;2023-06-10T13:11:40;6.32;;;5.03;;
71888;SDS011;59762;49.998;14.858;2023-06-10T13:14:08;8.60;;;4.85;;
71888;SDS011;59762;49.998;14.858;2023-06-10T13:16:35;9.10;;;4.47;;
71888;SDS011;59762;49.998;14.858;2023-06-10T13:19:03;5.95;;;4.70;;
71888;SDS011;59762;49.998;14.858;2023-06-10T13:21:31;7.38;;;4.70;;
71888;SDS011;59762;49.998;14.858;2023-06-10T13:23:57;11.73;;;5.78;;
71888;SDS011;59762;49.998;14.858;2023-06-10T13:26:23;5.53;;;4.55;;
71888;SDS011;59762;49.998;14.858;2023-06-10T13:28:49;7.22;;;4.75;;
71888;SDS011;59762;49.998;14.858;2023-06-10T13:31:16;6.00;;;4.72;;
71888;SDS011;59762;49.998;14.858;2023-06-10T13:33:42;5.43;;;4.35;;
71888;SDS011;59762;49.998;14.858;2023-06-10T13:36:08;5.00;;;4.50;;
71888;SDS011;59762;49.998;14.858;2023-06-10T13:38:40;7.35;;;4.35;;
71888;SDS011;59762;49.998;14.858;2023-06-10T13:41:06;6.47;;;4.40;;
71888;SDS011;59762;49.998;14.858;2023-06-10T13:43:32;7.70;;;5.05;;
71888;SDS011;59762;49.998;14.858;2023-06-10T13:45:57;5.53;;;4.38;;
71888;SDS011;59762;49.998;14.858;2023-06-10T13:48:23;5.88;;;4.65;;
71888;SDS011;59762;49.998;14.858;2023-06-10T13:50:49;5.80;;;4.75;;
71888;SDS011;59762;49.998;14.858;2023-06-10T13:53:15;6.60;;;4.65;;
71888;SDS011;59762;49.998;14.858;2023-06-10T13:55:40;7.05;;;5.53;;
71888;SDS011;59762;49.998;14.858;2023-06-10T13:58:06;12.10;;;5.63;;
71888;SDS011;59762;49.998;14.858;2023-06-10T14:00:32;8.32;;;5.03;;
71888;SDS011;59762;49.998;14.858;2023-06-10T14:02:58;8.57;;;5.25;;
71888;SDS011;59762;49.998;14.858;2023-06-10T14:05:23;7.05;;;4.90;;
71888;SDS011;59762;49.998;14.858;2023-06-10T14:07:49;5.07;;;4.20;;
71888;SDS011;59762;49.998;14.858;2023-06-10T14:10:15;6.25;;;4.95;;
71888;SDS011;59762;49.998;14.858;2023-06-10T14:12:41;5.03;;;4.53;;
71888;SDS011;59762;49.998;14.858;2023-06-10T14:15:07;5.30;;;4.80;;
71888;SDS011;59762;49.998;14.858;2023-06-10T14:17:33;7.10;;;4.80;;
71888;SDS011;59762;49.998;14.858;2023-06-10T14:19:58;6.45;;;4.70;;
71888;SDS011;59762;49.998;14.858;2023-06-10T14:22:25;7.13;;;4.60;;
71888;SDS011;59762;49.998;14.858;2023-06-10T14:24:50;5.65;;;5.00;;
71888;SDS011;59762;49.998;14.858;2023-06-10T14:27:16;7.43;;;4.63;;
71888;SDS011;59762;49.998;14.858;2023-06-10T14:29:42;9.32;;;4.97;;
71888;SDS011;59762;49.998;14.858;2023-06-10T14:32:08;8.15;;;4.53;;
71888;SDS011;59762;49.998;14.858;2023-06-10T14:34:34;7.93;;;4.93;;
71888;SDS011;59762;49.998;14.858;2023-06-10T14:37:00;5.30;;;4.53;;
71888;SDS011;59762;49.998;14.858;2023-06-10T14:39:26;6.60;;;4.70;;